Time;durP1;ratioP1;P1;durP2;ratioP2;P2;SDS_P1;SDS_P2;PMS_P1;PMS_P2;Temp;Humidity;BMP_temperature;BMP_pressure;BME280_temperature;BME280_humidity;BME280_pressure;Samples;Min_cycle;Max_cycle;Signal;HPM_P1;HPM_P2
2022/09/25 00:00:29;;;;;;;7.57;1.77;;;10.80;79.30;;;;;;5012250;28;20054;-75
2022/09/25 00:02:56;;;;;;;5.43;2.00;;;10.80;79.40;;;;;;5014007;28;20050;-74
2022/09/25 00:05:23;;;;;;;7.30;2.00;;;10.70;79.50;;;;;;5012663;28;20062;-75
2022/09/25 00:07:51;;;;;;;6.60;2.40;;;10.70;79.50;;;;;;5012417;28;20242;-75
2022/09/25 00:10:19;;;;;;;5.18;1.92;;;10.70;79.50;;;;;;5012210;28;20064;-75
2022/09/25 00:12:46;;;;;;;6.43;1.88;;;10.70;79.50;;;;;;5012626;28;20133;-75
2022/09/25 00:15:13;;;;;;;7.43;2.00;;;10.70;79.60;;;;;;5012290;28;20134;-75
2022/09/25 00:17:39;;;;;;;7.60;2.43;;;10.70;79.60;;;;;;5012790;28;20161;-74
2022/09/25 00:20:06;;;;;;;5.80;1.90;;;10.70;79.70;;;;;;5011759;28;21221;-74
2022/09/25 00:22:33;;;;;;;6.95;2.20;;;10.60;79.70;;;;;;5012526;28;20061;-74
2022/09/25 00:25:02;;;;;;;9.52;2.47;;;10.60;79.70;;;;;;5012402;28;20046;-74
2022/09/25 00:27:29;;;;;;;8.98;2.70;;;10.60;79.90;;;;;;5012028;28;20536;-74
2022/09/25 00:29:58;;;;;;;6.70;2.23;;;10.50;79.80;;;;;;4995602;28;20057;-75
2022/09/25 00:32:25;;;;;;;10.68;2.70;;;10.50;79.90;;;;;;5012321;28;20246;-74
2022/09/25 00:34:52;;;;;;;6.78;2.30;;;10.50;79.90;;;;;;4996010;28;20050;-74
2022/09/25 00:37:19;;;;;;;7.00;2.30;;;10.50;80.00;;;;;;5011874;28;20563;-74
2022/09/25 00:39:46;;;;;;;6.50;1.90;;;10.50;80.10;;;;;;5011755;28;20368;-74
2022/09/25 00:42:18;;;;;;;6.40;2.10;;;10.50;80.00;;;;;;4995797;28;20073;-74
2022/09/25 00:44:56;;;;;;;8.70;2.20;;;10.50;80.00;;;;;;5012292;28;20290;-75
2022/09/25 00:47:47;;;;;;;5.95;1.80;;;10.50;80.00;;;;;;5011891;28;20719;-75
2022/09/25 00:50:29;;;;;;;7.55;1.80;;;10.50;80.00;;;;;;5009524;28;20050;-75
2022/09/25 00:53:02;;;;;;;5.75;1.88;;;10.40;80.00;;;;;;5011942;28;20101;-74
2022/09/25 00:55:30;;;;;;;6.57;2.13;;;10.40;80.00;;;;;;5010435;28;20495;-74
2022/09/25 00:58:01;;;;;;;7.13;1.85;;;10.40;80.00;;;;;;5011643;28;20813;-74
2022/09/25 01:00:28;;;;;;;5.75;2.08;;;10.40;80.10;;;;;;4995030;28;20064;-74
2022/09/25 01:02:56;;;;;;;4.80;1.85;;;10.40;80.10;;;;;;5011577;28;20050;-74
2022/09/25 01:05:26;;;;;;;6.28;2.00;;;10.40;80.00;;;;;;5011954;28;20584;-74
2022/09/25 01:07:56;;;;;;;6.80;1.87;;;10.40;80.10;;;;;;5011752;28;20050;-74
2022/09/25 01:10:23;;;;;;;6.50;1.70;;;10.40;80.00;;;;;;5011534;28;20282;-74
2022/09/25 01:12:51;;;;;;;5.45;1.90;;;10.40;80.10;;;;;;5011426;28;20552;-74
2022/09/25 01:15:26;;;;;;;5.07;1.70;;;10.30;80.10;;;;;;5011580;28;20430;-74
2022/09/25 01:18:03;;;;;;;5.65;2.08;;;10.30;80.00;;;;;;5011717;28;20057;-74
2022/09/25 01:20:57;;;;;;;6.43;2.07;;;10.30;80.10;;;;;;5011702;28;20519;-74
2022/09/25 01:23:39;;;;;;;4.82;1.70;;;10.30;80.10;;;;;;5011303;28;20341;-74
2022/09/25 01:26:25;;;;;;;5.60;1.83;;;10.20;80.20;;;;;;5011286;28;20132;-74
2022/09/25 01:29:06;;;;;;;5.05;1.63;;;10.20;80.20;;;;;;5009347;28;20812;-74
2022/09/25 01:31:39;;;;;;;9.25;1.83;;;10.20;80.20;;;;;;4994799;28;20112;-74
2022/09/25 01:34:14;;;;;;;5.00;2.03;;;10.20;80.30;;;;;;5011196;28;20129;-74
2022/09/25 01:36:47;;;;;;;5.20;1.63;;;10.20;80.30;;;;;;5012755;28;20258;-74
2022/09/25 01:39:21;;;;;;;7.45;1.95;;;10.20;80.30;;;;;;5011024;28;20082;-74
2022/09/25 01:41:55;;;;;;;5.13;1.80;;;10.20;80.20;;;;;;5012506;28;20246;-74
2022/09/25 01:44:28;;;;;;;5.80;1.58;;;10.20;80.20;;;;;;5011011;28;20089;-74
2022/09/25 01:46:59;;;;;;;6.50;2.10;;;10.20;80.20;;;;;;5011129;28;20056;-74
2022/09/25 01:49:30;;;;;;;8.07;1.70;;;10.20;80.20;;;;;;5010462;28;20313;-74
2022/09/25 01:52:00;;;;;;;4.80;1.90;;;10.10;80.20;;;;;;5010773;28;20046;-74
2022/09/25 01:54:30;;;;;;;6.95;1.60;;;10.10;80.20;;;;;;5010948;28;20133;-75
2022/09/25 01:57:03;;;;;;;8.52;1.85;;;10.00;80.40;;;;;;5011118;28;20136;-74
2022/09/25 01:59:38;;;;;;;5.70;1.93;;;10.00;80.50;;;;;;4993934;28;20611;-74
2022/09/25 02:02:12;;;;;;;5.10;1.75;;;10.00;80.50;;;;;;5010661;28;20313;-74
2022/09/25 02:04:44;;;;;;;5.22;1.50;;;10.00;80.80;;;;;;5009843;28;20046;-74
2022/09/25 02:07:19;;;;;;;6.28;2.20;;;9.90;80.70;;;;;;5011093;28;20506;-74
2022/09/25 02:09:51;;;;;;;7.38;1.80;;;9.90;81.00;;;;;;5009366;28;20099;-74
2022/09/25 02:12:22;;;;;;;5.20;1.67;;;9.80;81.10;;;;;;5010572;28;20186;-74
2022/09/25 02:14:54;;;;;;;5.90;1.65;;;9.80;80.90;;;;;;5010482;28;20329;-74
2022/09/25 02:22:58;;;;;;;3.63;1.80;;;9.80;81.10;;;;;;5011991;28;20148;-74
2022/09/25 02:25:33;;;;;;;8.03;1.90;;;9.80;81.20;;;;;;4993968;28;20564;-74
2022/09/25 02:28:01;;;;;;;6.47;1.80;;;9.80;81.40;;;;;;5011155;28;20361;-74
2022/09/25 02:30:30;;;;;;;6.18;1.83;;;9.80;81.40;;;;;;5009744;28;20051;-74
2022/09/25 02:32:57;;;;;;;6.70;1.88;;;9.80;81.40;;;;;;5010498;28;20504;-74
2022/09/25 02:35:25;;;;;;;4.88;1.77;;;9.80;81.60;;;;;;5012012;28;20058;-74
2022/09/25 02:37:52;;;;;;;5.10;2.00;;;9.70;81.50;;;;;;5010276;28;20050;-74
2022/09/25 02:40:22;;;;;;;6.43;2.00;;;9.70;81.60;;;;;;5009859;28;20260;-74
2022/09/25 02:42:52;;;;;;;7.53;2.58;;;9.70;81.70;;;;;;5011661;28;20054;-74
2022/09/25 02:45:34;;;;;;;8.30;2.88;;;9.70;81.70;;;;;;5010310;28;20050;-74
2022/09/25 02:48:10;;;;;;;7.20;3.00;;;9.70;81.70;;;;;;5011752;28;20061;-74
2022/09/25 02:50:45;;;;;;;6.37;3.13;;;9.70;81.80;;;;;;5009590;28;20050;-74
2022/09/25 02:53:17;;;;;;;7.38;3.03;;;9.70;81.80;;;;;;5010104;28;20619;-74
2022/09/25 02:55:49;;;;;;;6.45;2.30;;;9.70;81.70;;;;;;5010417;28;20058;-75
2022/09/25 02:58:20;;;;;;;6.57;2.30;;;9.70;81.70;;;;;;5010246;28;20113;-74
2022/09/25 03:00:52;;;;;;;5.05;2.20;;;9.70;81.80;;;;;;4993444;28;20053;-74
2022/09/25 03:03:22;;;;;;;6.40;2.30;;;9.60;81.70;;;;;;5009237;28;20046;-74
2022/09/25 03:05:51;;;;;;;6.80;1.83;;;9.60;81.80;;;;;;5011068;28;20293;-75
2022/09/25 03:08:38;;;;;;;6.20;1.80;;;9.60;81.80;;;;;;5010000;28;20660;-74
2022/09/25 03:11:05;;;;;;;6.63;1.83;;;9.50;81.90;;;;;;5007805;28;20050;-74
2022/09/25 03:13:32;;;;;;;4.72;1.60;;;9.50;82.10;;;;;;5009987;28;20058;-74
2022/09/25 03:16:05;;;;;;;4.97;1.73;;;9.50;82.00;;;;;;5011889;28;20057;-74
2022/09/25 03:18:32;;;;;;;5.13;1.73;;;9.40;82.20;;;;;;5009757;28;20254;-75
2022/09/25 03:20:59;;;;;;;5.68;1.50;;;9.40;82.20;;;;;;4991751;28;20166;-74
2022/09/25 03:23:26;;;;;;;5.22;1.73;;;9.40;82.30;;;;;;5009476;28;20046;-74
2022/09/25 03:25:54;;;;;;;5.47;1.70;;;9.40;82.40;;;;;;5009857;28;20074;-74
2022/09/25 03:28:22;;;;;;;5.33;1.67;;;9.40;82.60;;;;;;5009895;28;20472;-74
2022/09/25 03:30:57;;;;;;;6.72;1.52;;;9.40;82.60;;;;;;5010473;28;20373;-74
2022/09/25 03:33:25;;;;;;;9.68;1.67;;;9.40;82.60;;;;;;5009674;28;20142;-74
2022/09/25 03:36:04;;;;;;;5.63;1.70;;;9.30;82.50;;;;;;5009442;28;20513;-74
2022/09/25 03:38:31;;;;;;;5.03;1.80;;;9.30;82.70;;;;;;5011206;28;20054;-74
2022/09/25 03:40:58;;;;;;;6.83;1.70;;;9.30;82.70;;;;;;5009272;28;20082;-74
2022/09/25 03:43:25;;;;;;;5.30;1.60;;;9.30;82.60;;;;;;5008974;28;20286;-75
2022/09/25 03:45:52;;;;;;;5.38;1.83;;;9.30;82.80;;;;;;5009469;28;20061;-74
2022/09/25 03:48:19;;;;;;;6.45;2.30;;;9.30;82.70;;;;;;5010971;28;20515;-74
2022/09/25 03:50:49;;;;;;;5.97;1.90;;;9.30;82.80;;;;;;5008658;28;20050;-75
2022/09/25 03:53:17;;;;;;;6.57;1.90;;;9.30;82.60;;;;;;5010807;28;20574;-74
2022/09/25 03:55:47;;;;;;;8.32;2.10;;;9.20;82.60;;;;;;5009040;28;20347;-74
2022/09/25 03:58:15;;;;;;;5.53;1.80;;;9.20;82.70;;;;;;5008718;28;20064;-74
2022/09/25 04:00:42;;;;;;;7.05;1.90;;;9.20;82.60;;;;;;5009085;28;20058;-74
2022/09/25 04:03:09;;;;;;;5.82;1.70;;;9.20;82.70;;;;;;4991909;28;20129;-74
2022/09/25 04:05:36;;;;;;;6.47;1.70;;;9.20;82.70;;;;;;5007655;28;20065;-74
2022/09/25 04:08:04;;;;;;;6.85;1.60;;;9.20;82.70;;;;;;5007548;28;20346;-74
2022/09/25 04:10:31;;;;;;;4.28;1.30;;;9.20;82.70;;;;;;4990309;28;20046;-74
2022/09/25 04:12:58;;;;;;;6.55;1.63;;;9.20;82.70;;;;;;5007432;28;20065;-74
2022/09/25 04:15:25;;;;;;;6.68;1.63;;;9.20;82.60;;;;;;5009043;28;20054;-74
2022/09/25 04:17:52;;;;;;;6.23;1.80;;;9.20;82.60;;;;;;5007531;28;20503;-74
2022/09/25 04:20:20;;;;;;;7.22;1.90;;;9.20;82.80;;;;;;5008492;28;20266;-74
2022/09/25 04:22:46;;;;;;;6.38;2.13;;;9.20;82.80;;;;;;5008972;28;20535;-74
2022/09/25 04:25:15;;;;;;;7.47;3.97;;;9.20;82.70;;;;;;5009128;28;20515;-74
2022/09/25 04:27:43;;;;;;;17.17;7.57;;;9.20;82.70;;;;;;5010710;28;20054;-74
2022/09/25 04:30:10;;;;;;;12.47;5.77;;;9.20;82.70;;;;;;5009920;28;20054;-74
2022/09/25 04:35:22;;;;;;;11.23;4.53;;;9.20;82.60;;;;;;5013785;28;20046;-74
2022/09/25 04:37:49;;;;;;;11.45;4.43;;;9.20;82.60;;;;;;4995727;28;20133;-75
2022/09/25 04:40:17;;;;;;;11.68;3.88;;;9.20;82.70;;;;;;4996084;28;20085;-74
2022/09/25 04:42:44;;;;;;;9.27;3.40;;;9.20;82.60;;;;;;5012182;28;20153;-74
2022/09/25 04:45:11;;;;;;;7.90;2.80;;;9.20;82.70;;;;;;5013743;28;20349;-74
2022/09/25 04:47:38;;;;;;;7.60;2.63;;;9.20;82.70;;;;;;4996135;28;20053;-74
2022/09/25 04:50:06;;;;;;;7.85;2.42;;;9.20;82.60;;;;;;5013132;28;20132;-74
2022/09/25 04:52:33;;;;;;;7.93;2.38;;;9.20;82.80;;;;;;5012110;28;20054;-75
2022/09/25 04:55:00;;;;;;;6.80;3.00;;;9.20;83.00;;;;;;5013319;28;20054;-74
2022/09/25 04:57:28;;;;;;;5.85;1.88;;;9.10;82.90;;;;;;5012132;28;20348;-74
2022/09/25 04:59:55;;;;;;;5.88;2.10;;;9.10;83.00;;;;;;5013157;28;20149;-74
2022/09/25 05:02:27;;;;;;;4.93;1.50;;;9.10;83.00;;;;;;5012604;28;20042;-74
2022/09/25 05:04:54;;;;;;;6.05;1.90;;;9.00;83.20;;;;;;5012079;28;20050;-74
2022/09/25 05:07:21;;;;;;;4.97;1.57;;;9.00;83.20;;;;;;5012043;28;20150;-74
2022/09/25 05:09:47;;;;;;;5.45;1.80;;;9.00;83.20;;;;;;5011699;28;20285;-74
2022/09/25 05:12:14;;;;;;;8.63;1.50;;;9.00;83.30;;;;;;5011831;28;20065;-74
2022/09/25 05:14:43;;;;;;;4.68;1.23;;;9.00;83.30;;;;;;5011907;28;20043;-74
2022/09/25 05:17:10;;;;;;;5.53;1.33;;;9.00;83.30;;;;;;5011458;28;20056;-74
2022/09/25 05:19:38;;;;;;;4.70;1.33;;;9.10;83.30;;;;;;5011829;28;20050;-74
2022/09/25 05:22:05;;;;;;;6.00;1.42;;;9.10;83.40;;;;;;5011666;28;20266;-74
2022/09/25 05:24:32;;;;;;;4.88;1.40;;;9.00;83.20;;;;;;5011806;28;20082;-74
2022/09/25 05:26:59;;;;;;;5.03;1.67;;;9.00;83.30;;;;;;5011604;28;20109;-74
2022/09/25 05:29:26;;;;;;;4.32;1.52;;;9.00;83.30;;;;;;5010105;28;20959;-74
2022/09/25 05:31:55;;;;;;;3.97;1.37;;;9.10;83.30;;;;;;5011466;28;20058;-74
2022/09/25 05:34:22;;;;;;;5.32;1.30;;;9.10;83.40;;;;;;5011877;28;20329;-74
2022/09/25 05:36:49;;;;;;;5.07;1.52;;;9.10;83.30;;;;;;5011548;28;20517;-74
2022/09/25 05:39:16;;;;;;;5.40;1.65;;;9.10;83.30;;;;;;5012410;28;20043;-74
2022/09/25 05:41:43;;;;;;;4.88;1.55;;;9.10;83.30;;;;;;5011299;28;20057;-74
2022/09/25 05:44:11;;;;;;;6.13;1.90;;;9.10;83.20;;;;;;5011812;28;20058;-74
2022/09/25 05:46:39;;;;;;;4.95;1.70;;;9.10;83.20;;;;;;5011547;28;20251;-74
2022/09/25 05:49:07;;;;;;;5.53;2.15;;;9.10;83.20;;;;;;5011101;28;20513;-74
2022/09/25 05:51:34;;;;;;;4.00;1.73;;;9.10;83.30;;;;;;5011289;28;20050;-74
2022/09/25 05:54:01;;;;;;;4.97;1.55;;;9.10;83.20;;;;;;5012961;28;20489;-74
2022/09/25 05:56:28;;;;;;;4.13;1.10;;;9.10;83.30;;;;;;5011350;28;20567;-74
2022/09/25 05:58:57;;;;;;;5.70;1.52;;;9.10;83.20;;;;;;5010704;28;20255;-74
2022/09/25 06:01:24;;;;;;;6.18;1.50;;;9.10;83.20;;;;;;5012432;28;20507;-74
2022/09/25 06:03:51;;;;;;;4.30;1.20;;;9.00;83.40;;;;;;5011232;28;20058;-74
2022/09/25 06:06:20;;;;;;;5.28;1.25;;;9.00;83.30;;;;;;5011360;28;20061;-74
2022/09/25 06:08:47;;;;;;;4.30;1.60;;;9.00;83.60;;;;;;5012584;28;20046;-74
2022/09/25 06:11:14;;;;;;;5.00;1.10;;;9.00;83.50;;;;;;5010992;28;20784;-74
2022/09/25 06:13:45;;;;;;;5.25;1.40;;;9.00;83.50;;;;;;5011145;28;20061;-74
2022/09/25 06:16:18;;;;;;;6.70;1.50;;;9.00;83.60;;;;;;5011083;28;20447;-74
2022/09/25 06:18:46;;;;;;;4.57;1.40;;;9.10;83.70;;;;;;5012333;28;20042;-74
2022/09/25 06:21:13;;;;;;;5.70;1.40;;;9.10;83.70;;;;;;5010456;28;20051;-74
2022/09/25 06:23:45;;;;;;;5.53;1.15;;;9.10;83.90;;;;;;5010632;28;20247;-74
2022/09/25 06:26:13;;;;;;;4.43;1.15;;;9.10;83.90;;;;;;4946378;28;59638;-74
2022/09/25 06:28:40;;;;;;;6.03;1.50;;;9.20;84.00;;;;;;5012371;28;20050;-74
2022/09/25 06:31:07;;;;;;;5.85;1.40;;;9.20;84.10;;;;;;5009720;28;20839;-75
2022/09/25 06:33:34;;;;;;;4.63;1.10;;;9.20;84.90;;;;;;5009752;28;20074;-75
2022/09/25 06:36:01;;;;;;;4.30;1.35;;;9.20;85.40;;;;;;5009819;28;20266;-75
2022/09/25 06:38:29;;;;;;;3.53;1.02;;;9.20;84.80;;;;;;5007948;28;20057;-75
2022/09/25 06:40:59;;;;;;;5.18;1.17;;;9.20;84.80;;;;;;5009601;28;20042;-75
2022/09/25 06:43:26;;;;;;;4.32;1.10;;;9.20;85.20;;;;;;5011292;28;20069;-75
2022/09/25 06:45:53;;;;;;;6.87;1.43;;;9.20;85.50;;;;;;5009479;28;20047;-74
2022/09/25 06:48:21;;;;;;;4.07;1.08;;;9.30;85.20;;;;;;5009513;28;20317;-74
2022/09/25 06:50:50;;;;;;;6.78;1.48;;;9.40;85.20;;;;;;5010349;28;20050;-75
2022/09/25 06:53:19;;;;;;;6.50;1.13;;;9.40;85.30;;;;;;4991849;28;20050;-75
2022/09/25 06:55:46;;;;;;;4.18;1.00;;;9.40;85.60;;;;;;5008214;28;20057;-75
2022/09/25 06:58:17;;;;;;;3.50;1.10;;;9.40;85.80;;;;;;4992379;28;20046;-75
2022/09/25 07:00:46;;;;;;;5.05;1.00;;;9.50;86.40;;;;;;4992786;28;20812;-74
2022/09/25 07:06:00;;;;;;;6.13;1.35;;;9.50;86.10;;;;;;5007880;28;20437;-74
2022/09/25 07:08:27;;;;;;;5.30;1.27;;;9.60;85.80;;;;;;5009265;28;20094;-74
2022/09/25 07:10:56;;;;;;;4.40;0.80;;;9.60;86.30;;;;;;4991680;28;20435;-74
2022/09/25 07:13:27;;;;;;;5.28;1.20;;;9.70;86.70;;;;;;5006488;28;20258;-74
2022/09/25 07:15:55;;;;;;;6.32;1.17;;;9.70;86.60;;;;;;5006139;28;20134;-75
2022/09/25 07:18:24;;;;;;;4.07;1.00;;;9.80;87.30;;;;;;5009674;28;20133;-75
2022/09/25 07:20:52;;;;;;;4.60;1.20;;;9.80;86.90;;;;;;5009168;28;20619;-75
2022/09/25 07:23:22;;;;;;;3.87;1.00;;;10.00;86.60;;;;;;5009746;28;20050;-75
2022/09/25 07:25:49;;;;;;;3.97;0.90;;;10.00;87.30;;;;;;5011461;28;20258;-75
2022/09/25 07:28:18;;;;;;;6.22;1.10;;;10.00;87.70;;;;;;5009658;28;20615;-75
2022/09/25 07:30:48;;;;;;;5.03;1.15;;;10.10;87.80;;;;;;5010418;28;20525;-75
2022/09/25 07:33:15;;;;;;;5.13;0.98;;;10.20;87.30;;;;;;5009121;28;20165;-74
2022/09/25 07:35:42;;;;;;;6.03;1.60;;;10.20;87.20;;;;;;5010312;28;20054;-74
2022/09/25 07:38:09;;;;;;;3.97;1.02;;;10.30;87.50;;;;;;5011012;28;20262;-74
2022/09/25 07:40:35;;;;;;;5.20;0.90;;;10.30;87.60;;;;;;5008929;28;20078;-74
2022/09/25 07:43:03;;;;;;;3.72;0.70;;;10.40;87.70;;;;;;5009375;28;20056;-74
2022/09/25 07:45:31;;;;;;;4.00;0.90;;;10.50;87.90;;;;;;5025178;28;20054;-74
2022/09/25 07:48:00;;;;;;;5.43;0.97;;;10.50;87.50;;;;;;5006512;28;20080;-74
2022/09/25 07:50:27;;;;;;;4.60;0.95;;;10.60;88.00;;;;;;5009382;28;20360;-74
2022/09/25 07:52:54;;;;;;;6.03;1.20;;;10.70;87.70;;;;;;5009083;28;20535;-74
2022/09/25 07:55:22;;;;;;;4.32;0.80;;;10.80;88.00;;;;;;5008997;28;20046;-74
2022/09/25 07:57:50;;;;;;;4.28;0.88;;;10.90;87.80;;;;;;5009144;28;20052;-74
2022/09/25 08:00:18;;;;;;;6.10;0.90;;;10.90;87.60;;;;;;5007671;28;20156;-74
2022/09/25 08:02:45;;;;;;;4.47;0.68;;;11.00;87.60;;;;;;5008950;28;20262;-73
2022/09/25 08:05:14;;;;;;;6.57;1.00;;;11.00;87.20;;;;;;5010275;28;20169;-74
2022/09/25 08:07:41;;;;;;;5.10;1.00;;;11.10;87.60;;;;;;5008906;28;20516;-74
2022/09/25 08:10:08;;;;;;;3.58;0.90;;;11.10;87.50;;;;;;5009675;28;20054;-73
2022/09/25 08:12:35;;;;;;;5.03;0.80;;;11.20;87.50;;;;;;4958259;28;20060;-74
2022/09/25 08:15:02;;;;;;;4.00;0.50;;;11.30;87.80;;;;;;5010722;28;20254;-74
2022/09/25 08:17:30;;;;;;;4.45;0.70;;;11.40;87.80;;;;;;5010914;28;21075;-74
2022/09/25 08:19:58;;;;;;;4.97;0.80;;;11.40;87.40;;;;;;5012710;28;20066;-74
2022/09/25 08:22:26;;;;;;;3.95;0.70;;;11.50;86.90;;;;;;5011334;28;20101;-74
2022/09/25 08:24:54;;;;;;;4.00;0.73;;;11.50;86.70;;;;;;5013642;28;20133;-73
2022/09/25 08:27:21;;;;;;;6.40;0.50;;;11.50;87.00;;;;;;5012346;28;21096;-74
2022/09/25 08:29:48;;;;;;;4.60;0.52;;;11.70;86.70;;;;;;5011805;28;20050;-75
2022/09/25 08:32:15;;;;;;;4.38;0.57;;;11.70;86.50;;;;;;5012078;28;20109;-74
2022/09/25 08:34:42;;;;;;;4.22;0.70;;;11.80;86.10;;;;;;5012128;28;20055;-74
2022/09/25 08:37:09;;;;;;;5.77;0.83;;;11.90;85.90;;;;;;5011930;28;21062;-74
2022/09/25 08:39:37;;;;;;;3.72;0.45;;;11.90;85.90;;;;;;5013270;28;20273;-75
2022/09/25 08:42:05;;;;;;;5.85;0.60;;;11.90;85.70;;;;;;5012135;28;20061;-75
2022/09/25 08:44:37;;;;;;;5.50;0.70;;;12.00;85.50;;;;;;5028731;28;20501;-74
2022/09/25 08:50:02;;;;;;;5.27;0.80;;;12.10;84.80;;;;;;5012701;28;20058;-74
2022/09/25 08:52:30;;;;;;;2.90;0.70;;;12.20;84.40;;;;;;5013038;28;20257;-74
2022/09/25 08:54:59;;;;;;;5.13;0.80;;;12.20;84.40;;;;;;5025674;28;20050;-75
2022/09/25 08:57:33;;;;;;;4.20;0.50;;;12.30;84.40;;;;;;5011920;28;20140;-74
2022/09/25 09:00:04;;;;;;;3.28;0.38;;;12.30;84.20;;;;;;5010096;28;20440;-74
2022/09/25 09:02:38;;;;;;;2.70;0.40;;;12.40;84.00;;;;;;5012855;28;20050;-75
2022/09/25 09:05:14;;;;;;;4.78;0.60;;;12.50;84.20;;;;;;5011944;28;20290;-74
2022/09/25 09:07:46;;;;;;;4.57;0.60;;;12.50;84.10;;;;;;5010794;28;20054;-76
2022/09/25 09:10:25;;;;;;;5.90;0.57;;;12.50;83.90;;;;;;5011843;28;20454;-76
2022/09/25 09:12:58;;;;;;;4.28;0.55;;;12.70;83.70;;;;;;4962526;28;20137;-75
2022/09/25 09:15:32;;;;;;;6.03;0.80;;;12.70;83.60;;;;;;5027344;28;20667;-75
2022/09/25 09:18:02;;;;;;;3.20;0.35;;;12.80;83.40;;;;;;5010319;28;20403;-75
2022/09/25 09:20:38;;;;;;;1.58;0.38;;;12.80;82.70;;;;;;4993899;28;20101;-75
2022/09/25 09:23:09;;;;;;;7.07;0.70;;;12.90;82.10;;;;;;5010336;28;20078;-75
2022/09/25 09:25:47;;;;;;;3.53;0.68;;;13.00;82.20;;;;;;5010377;28;20049;-75
2022/09/25 09:28:56;;;;;;;4.37;0.40;;;13.10;81.00;;;;;;4993876;28;20046;-75
2022/09/25 09:31:31;;;;;;;6.00;0.82;;;13.10;79.80;;;;;;4988308;28;20357;-75
2022/09/25 09:34:11;;;;;;;3.03;0.20;;;13.30;78.60;;;;;;5012128;28;20054;-75
2022/09/25 09:36:45;;;;;;;5.25;0.50;;;13.30;77.50;;;;;;5027504;28;20050;-75
2022/09/25 09:39:19;;;;;;;6.53;0.60;;;13.30;77.30;;;;;;5010966;28;20065;-75
2022/09/25 09:42:00;;;;;;;4.03;0.40;;;13.30;78.20;;;;;;5008836;28;20988;-75
2022/09/25 09:44:39;;;;;;;3.72;0.65;;;13.30;78.10;;;;;;5011825;28;20269;-76
2022/09/25 09:47:21;;;;;;;1.95;0.30;;;13.30;78.50;;;;;;5010639;28;20078;-74
2022/09/25 09:49:54;;;;;;;3.67;0.40;;;13.30;78.60;;;;;;5010557;28;20050;-75
2022/09/25 09:52:25;;;;;;;2.95;0.55;;;13.30;78.50;;;;;;5009949;28;20440;-73
2022/09/25 09:54:55;;;;;;;3.37;0.30;;;13.30;78.70;;;;;;5008925;28;20054;-74
2022/09/25 09:57:29;;;;;;;3.95;0.40;;;13.20;78.40;;;;;;5007213;28;20723;-74
2022/09/25 09:59:59;;;;;;;2.63;0.52;;;13.10;78.70;;;;;;5009218;28;20058;-74
2022/09/25 10:02:32;;;;;;;2.42;0.40;;;13.10;78.90;;;;;;5008909;28;20062;-75
2022/09/25 10:05:03;;;;;;;2.92;0.50;;;13.10;79.10;;;;;;4974707;28;20139;-75
2022/09/25 10:07:36;;;;;;;3.23;0.50;;;13.10;79.30;;;;;;5010864;28;20050;-75
2022/09/25 10:10:12;;;;;;;1.90;0.35;;;13.10;79.60;;;;;;5028786;28;20747;-74
2022/09/25 10:12:43;;;;;;;4.20;0.50;;;13.10;79.90;;;;;;5010050;28;20050;-74
2022/09/25 10:15:18;;;;;;;2.92;0.40;;;13.10;80.10;;;;;;5007893;28;20667;-75
2022/09/25 10:17:46;;;;;;;2.28;0.50;;;13.10;80.30;;;;;;5008542;28;20078;-75
2022/09/25 10:20:19;;;;;;;5.80;0.70;;;13.10;80.60;;;;;;5009615;28;20652;-74
2022/09/25 10:22:46;;;;;;;3.42;0.50;;;13.30;80.50;;;;;;5010113;28;20645;-75
2022/09/25 10:25:14;;;;;;;5.15;0.77;;;13.30;80.30;;;;;;5012080;28;20059;-75
2022/09/25 10:27:44;;;;;;;4.70;0.60;;;13.30;80.60;;;;;;5010018;28;20050;-75
2022/09/25 10:30:19;;;;;;;3.13;0.40;;;13.50;80.70;;;;;;5009008;28;20054;-75
2022/09/25 10:32:53;;;;;;;2.97;0.40;;;13.50;80.90;;;;;;5009223;28;20056;-75
2022/09/25 10:35:22;;;;;;;3.13;0.50;;;13.50;81.00;;;;;;5009228;28;20321;-75
2022/09/25 10:37:53;;;;;;;2.80;0.50;;;13.60;81.20;;;;;;5009921;28;20054;-75
2022/09/25 10:40:26;;;;;;;3.40;0.50;;;13.70;81.50;;;;;;5008265;28;20098;-75
2022/09/25 10:43:07;;;;;;;3.80;0.40;;;13.70;81.50;;;;;;5026553;28;20057;-75
2022/09/25 10:45:35;;;;;;;3.27;0.40;;;13.90;81.70;;;;;;5009879;28;20046;-74
2022/09/25 10:51:11;;;;;;;3.67;0.55;;;13.90;79.60;;;;;;5010379;28;20042;-75
2022/09/25 10:53:38;;;;;;;5.47;0.60;;;14.00;79.90;;;;;;5009074;28;20054;-75
2022/09/25 10:56:10;;;;;;;4.30;0.52;;;14.10;80.30;;;;;;5009652;28;20055;-75
2022/09/25 10:58:42;;;;;;;4.03;0.70;;;14.20;80.60;;;;;;5010425;28;20055;-74
2022/09/25 11:01:12;;;;;;;4.88;0.50;;;14.20;80.70;;;;;;5008773;28;20259;-75
2022/09/25 11:03:46;;;;;;;3.85;0.40;;;14.30;80.50;;;;;;5010176;28;20124;-75
2022/09/25 11:06:25;;;;;;;3.35;0.40;;;14.40;80.00;;;;;;5009595;28;20046;-75
2022/09/25 11:09:07;;;;;;;3.15;0.47;;;14.50;79.70;;;;;;5009316;28;20129;-76
2022/09/25 11:11:38;;;;;;;2.30;0.40;;;14.50;79.40;;;;;;5008772;28;20059;-75
2022/09/25 11:14:17;;;;;;;3.88;0.60;;;14.60;79.00;;;;;;5007591;28;20339;-76
2022/09/25 11:16:47;;;;;;;4.78;0.50;;;14.60;78.70;;;;;;5008477;28;20058;-75
2022/09/25 11:19:24;;;;;;;3.63;0.43;;;14.60;78.50;;;;;;5009186;28;20054;-76
2022/09/25 11:21:59;;;;;;;6.03;0.50;;;14.70;78.60;;;;;;5008899;28;20825;-76
2022/09/25 11:24:36;;;;;;;2.63;0.40;;;14.70;77.90;;;;;;5010363;28;20551;-76
2022/09/25 11:27:10;;;;;;;3.63;0.70;;;14.80;78.00;;;;;;5025332;28;20254;-76
2022/09/25 11:29:46;;;;;;;5.53;0.65;;;14.80;77.80;;;;;;5007918;28;20135;-76
2022/09/25 11:32:24;;;;;;;4.40;0.65;;;14.80;77.60;;;;;;5005949;28;20050;-75
2022/09/25 11:35:19;;;;;;;3.75;0.68;;;14.80;76.20;;;;;;5014376;28;20049;-76
2022/09/25 11:37:56;;;;;;;4.47;0.50;;;14.80;75.10;;;;;;4985557;28;20047;-75
2022/09/25 11:43:30;;;;;;;3.75;0.50;;;14.80;75.30;;;;;;5007961;28;20055;-76
2022/09/25 11:46:03;;;;;;;3.05;0.52;;;14.70;74.80;;;;;;5006909;28;20053;-75
2022/09/25 11:48:39;;;;;;;3.53;0.70;;;14.60;75.10;;;;;;5007555;28;20054;-75
2022/09/25 11:51:15;;;;;;;2.90;0.47;;;14.60;75.40;;;;;;5004822;28;20050;-74
2022/09/25 11:53:53;;;;;;;2.00;0.35;;;14.60;74.90;;;;;;5009607;28;20262;-74
2022/09/25 11:56:30;;;;;;;3.10;0.40;;;14.50;73.80;;;;;;5010417;28;20054;-75
2022/09/25 11:59:10;;;;;;;2.72;0.35;;;14.40;73.60;;;;;;5008503;28;20495;-75
2022/09/25 12:01:44;;;;;;;1.98;0.40;;;14.30;73.60;;;;;;5009372;28;20042;-75
2022/09/25 12:04:39;;;;;;;3.43;0.50;;;14.30;74.00;;;;;;5010194;28;20587;-74
2022/09/25 12:07:32;;;;;;;3.88;0.38;;;14.20;74.30;;;;;;5006725;28;20842;-76
2022/09/25 12:10:22;;;;;;;4.22;0.43;;;14.20;74.90;;;;;;5007823;28;20501;-76
2022/09/25 12:12:58;;;;;;;3.70;0.40;;;14.30;75.20;;;;;;5008365;28;20133;-75
2022/09/25 12:15:36;;;;;;;4.05;0.50;;;14.30;75.00;;;;;;5007569;28;20518;-75
2022/09/25 12:18:18;;;;;;;4.57;0.90;;;14.30;75.00;;;;;;5007194;28;20082;-75
2022/09/25 12:20:50;;;;;;;3.45;0.40;;;14.30;75.20;;;;;;5005781;28;20748;-75
2022/09/25 12:23:24;;;;;;;5.30;0.57;;;14.40;75.50;;;;;;5005825;28;20054;-76
2022/09/25 12:26:06;;;;;;;2.53;0.45;;;14.40;75.80;;;;;;5006123;28;20504;-76
2022/09/25 12:28:45;;;;;;;5.43;0.77;;;14.40;76.00;;;;;;5006364;28;20628;-75
2022/09/25 12:31:22;;;;;;;3.10;0.60;;;14.50;75.20;;;;;;5007600;28;20050;-75
2022/09/25 12:33:59;;;;;;;3.17;0.43;;;14.50;75.50;;;;;;5005731;28;20732;-76
2022/09/25 12:36:35;;;;;;;3.13;0.50;;;14.60;75.70;;;;;;5006358;28;20065;-75
2022/09/25 12:39:20;;;;;;;2.92;0.40;;;14.60;75.70;;;;;;5006537;28;20133;-75
2022/09/25 12:41:53;;;;;;;2.20;0.40;;;14.70;75.10;;;;;;5006206;28;20109;-75
2022/09/25 12:44:23;;;;;;;3.80;0.50;;;14.80;75.00;;;;;;5004731;28;20133;-76
2022/09/25 12:46:57;;;;;;;2.55;0.40;;;14.90;74.30;;;;;;5006145;28;20393;-75
2022/09/25 12:49:33;;;;;;;3.55;0.50;;;15.00;73.20;;;;;;5009582;28;20108;-75
2022/09/25 12:52:09;;;;;;;3.20;0.40;;;15.10;72.00;;;;;;5010337;28;20630;-75
2022/09/25 12:54:46;;;;;;;2.58;0.30;;;15.20;72.20;;;;;;5010025;28;20107;-76
2022/09/25 12:57:19;;;;;;;1.70;0.40;;;15.30;71.00;;;;;;5022759;28;20799;-75
2022/09/25 12:59:51;;;;;;;1.65;0.20;;;15.30;69.90;;;;;;5012608;28;20357;-75
2022/09/25 13:02:26;;;;;;;2.65;0.40;;;15.30;69.30;;;;;;5011412;28;20054;-75
2022/09/25 13:05:03;;;;;;;3.88;0.60;;;15.30;69.20;;;;;;5006814;28;20496;-75
2022/09/25 13:07:38;;;;;;;2.80;0.40;;;15.40;69.00;;;;;;5008814;28;20050;-75
2022/09/25 13:10:19;;;;;;;3.27;0.50;;;15.40;69.40;;;;;;5011009;28;20050;-76
2022/09/25 13:12:48;;;;;;;2.95;0.20;;;15.40;69.10;;;;;;5012146;28;20265;-75
2022/09/25 13:15:20;;;;;;;3.20;0.40;;;15.40;69.30;;;;;;5011422;28;20060;-76
2022/09/25 13:17:47;;;;;;;3.45;0.60;;;15.40;69.00;;;;;;5012800;28;20081;-76
2022/09/25 13:20:52;;;;;;;4.30;0.40;;;15.40;69.60;;;;;;5010685;28;20202;-76
2022/09/25 13:23:32;;;;;;;2.60;0.50;;;15.40;69.10;;;;;;5011131;28;20446;-76
2022/09/25 13:26:02;;;;;;;3.53;0.50;;;15.40;68.40;;;;;;4994873;28;20762;-75
2022/09/25 13:28:31;;;;;;;3.53;0.70;;;15.40;69.40;;;;;;4994906;28;20053;-76
2022/09/25 13:31:08;;;;;;;2.47;0.47;;;15.50;70.30;;;;;;4994655;28;20070;-76